Kandilousa — SYIF — position and weather

sailwx.info

Track history (hours):
 
Tides and Currents Weather Stations Pressure Air Temp Water Temp Dewpoint Dewpoint Depression Visibility Wind Speed Wind Dir Waves Ship Positions

Kandilousa

Last reported at 2015-Jun-27 13:32 UTC. Time now 2015-Jul-02 09:51 UTC.
Position N 05°50' E 098°18'.

Length 183 m; draft 9.1 m.

Type: Tanker. MMSI: 239354000.

Date/timePositionNaut miles runAvg speedWind from/ knotsBaromVisibWave heightAir tempDewpointWater temp
2015-Jun-27 13:32N 05°50' E 098°18'42112.7
2015-Jun-26 04:22N 01°12' E 103°36'1012.3
2015-Jun-26 03:33N 01°09' E 103°45'6 5.7
2015-Jun-26 02:33N 01°13' E 103°48'0 0.1
2015-Jun-26 01:27N 01°14' E 103°48'0 0.0
2015-Jun-26 00:33N 01°14' E 103°48'0 0.0
2015-Jun-25 23:24N 01°14' E 103°48'0 0.0
2015-Jun-25 22:33N 01°14' E 103°48'0 0.1
2015-Jun-25 21:21N 01°14' E 103°48'0 0.1
2015-Jun-25 20:33N 01°14' E 103°48'0 0.1
2015-Jun-25 19:33N 01°14' E 103°48'0 0.1
2015-Jun-25 18:27N 01°14' E 103°48'0 0.0
2015-Jun-25 17:30N 01°14' E 103°48'0 0.1
2015-Jun-25 16:27N 01°14' E 103°48'0 0.1
2015-Jun-25 15:33N 01°14' E 103°48'0 0.0
2015-Jun-25 14:30N 01°14' E 103°48'0 0.0
2015-Jun-25 13:27N 01°14' E 103°48'0 0.1
2015-Jun-25 12:27N 01°14' E 103°48'0 0.3
2015-Jun-25 11:33N 01°14' E 103°48'1 0.1
2015-Jun-24 20:12N 01°14' E 103°47'0 0.0
2015-Jun-24 19:33N 01°14' E 103°47'1 1.4
2015-Jun-24 18:30N 01°14' E 103°48'0 0.1
2015-Jun-24 17:33N 01°14' E 103°48'0 0.0
2015-Jun-24 16:33N 01°14' E 103°48'0 0.0
2015-Jun-24 15:30N 01°14' E 103°48'0 0.0
2015-Jun-24 14:33N 01°14' E 103°48'2 2.1
2015-Jun-24 13:33N 01°12' E 103°50'9 8.9
2015-Jun-24 12:33N 01°16' E 103°58'3 3.1
2015-Jun-24 11:33N 01°16' E 104°01'3 2.8
2015-Jun-24 10:33N 01°17' E 104°04'3 2.6
2015-Jun-24 09:33N 01°19' E 104°05'5 5.4
2015-Jun-24 08:33N 01°23' E 104°01'21 0.6
2015-Jun-22 19:33N 01°08' E 103°47'7411.8
2015-Jun-22 13:20N 01°41' E 102°41'1412.4
2015-Jun-22 12:14N 01°47' E 102°28'1110.6
2015-Jun-22 11:11N 01°52' E 102°18'  
Track history (hours):
 
Tides and Currents Weather Stations Pressure Air Temp Water Temp Dewpoint Dewpoint Depression Visibility Wind Speed Wind Dir Waves Ship Positions

Kandilousa

Last reported at 2015-Jun-27 13:32 UTC. Time now 2015-Jul-02 09:51 UTC.
Position N 05°50' E 098°18'.

Length 183 m; draft 9.1 m.

Type: Tanker. MMSI: 239354000.

Date/timePositionNaut miles runAvg speedWind from/ knotsBaromVisibWave heightAir tempDewpointWater temp
2015-Jun-27 13:32N 05°50' E 098°18'42112.7
2015-Jun-26 04:22N 01°12' E 103°36'1012.3
2015-Jun-26 03:33N 01°09' E 103°45'6 5.7
2015-Jun-26 02:33N 01°13' E 103°48'0 0.1
2015-Jun-26 01:27N 01°14' E 103°48'0 0.0
2015-Jun-26 00:33N 01°14' E 103°48'0 0.0
2015-Jun-25 23:24N 01°14' E 103°48'0 0.0
2015-Jun-25 22:33N 01°14' E 103°48'0 0.1
2015-Jun-25 21:21N 01°14' E 103°48'0 0.1
2015-Jun-25 20:33N 01°14' E 103°48'0 0.1
2015-Jun-25 19:33N 01°14' E 103°48'0 0.1
2015-Jun-25 18:27N 01°14' E 103°48'0 0.0
2015-Jun-25 17:30N 01°14' E 103°48'0 0.1
2015-Jun-25 16:27N 01°14' E 103°48'0 0.1
2015-Jun-25 15:33N 01°14' E 103°48'0 0.0
2015-Jun-25 14:30N 01°14' E 103°48'0 0.0
2015-Jun-25 13:27N 01°14' E 103°48'0 0.1
2015-Jun-25 12:27N 01°14' E 103°48'0 0.3
2015-Jun-25 11:33N 01°14' E 103°48'1 0.1
2015-Jun-24 20:12N 01°14' E 103°47'0 0.0
2015-Jun-24 19:33N 01°14' E 103°47'1 1.4
2015-Jun-24 18:30N 01°14' E 103°48'0 0.1
2015-Jun-24 17:33N 01°14' E 103°48'0 0.0
2015-Jun-24 16:33N 01°14' E 103°48'0 0.0
2015-Jun-24 15:30N 01°14' E 103°48'0 0.0
2015-Jun-24 14:33N 01°14' E 103°48'2 2.1
2015-Jun-24 13:33N 01°12' E 103°50'9 8.9
2015-Jun-24 12:33N 01°16' E 103°58'3 3.1
2015-Jun-24 11:33N 01°16' E 104°01'3 2.8
2015-Jun-24 10:33N 01°17' E 104°04'3 2.6
2015-Jun-24 09:33N 01°19' E 104°05'5 5.4
2015-Jun-24 08:33N 01°23' E 104°01'21 0.6
2015-Jun-22 19:33N 01°08' E 103°47'7411.8
2015-Jun-22 13:20N 01°41' E 102°41'1412.4
2015-Jun-22 12:14N 01°47' E 102°28'1110.6
2015-Jun-22 11:11N 01°52' E 102°18'  

Dump ship's entire track history